Time;durP1;ratioP1;P1;durP2;ratioP2;P2;SDS_P1;SDS_P2;PMS_P1;PMS_P2;Temp;Humidity;BMP_temperature;BMP_pressure;BME280_temperature;BME280_humidity;BME280_pressure;Samples;Min_cycle;Max_cycle;Signal;HPM_P1;HPM_P2
2021/10/22 00:01:29;;;;;;;13.60;3.60;;;;;;;;;;4130502;28;20511;-72
2021/10/22 00:03:30;;;;;;;12.85;3.40;;;;;;;;;;4128378;28;20062;-73
2021/10/22 00:05:33;;;;;;;13.95;3.90;;;;;;;;;;4124236;28;20041;-73
2021/10/22 00:07:34;;;;;;;13.20;4.22;;;;;;;;;;4128593;28;20049;-73
2021/10/22 00:09:35;;;;;;;16.55;4.22;;;;;;;;;;4127620;28;20550;-72
2021/10/22 00:11:43;;;;;;;14.23;4.90;;;;;;;;;;4128865;28;20217;-74
2021/10/22 00:13:44;;;;;;;13.55;3.35;;;;;;;;;;4130306;28;20041;-72
2021/10/22 00:15:45;;;;;;;14.02;4.15;;;;;;;;;;4118560;28;20491;-72
2021/10/22 00:17:46;;;;;;;11.98;3.75;;;;;;;;;;4122472;28;20061;-72
2021/10/22 00:19:48;;;;;;;20.60;3.85;;;;;;;;;;4119743;28;20122;-72
2021/10/22 00:21:49;;;;;;;13.52;3.85;;;;;;;;;;4122652;28;20042;-73
2021/10/22 00:23:51;;;;;;;11.52;3.88;;;;;;;;;;4128187;28;20077;-73
2021/10/22 00:25:52;;;;;;;14.05;4.47;;;;;;;;;;4129729;28;20031;-74
2021/10/22 00:27:53;;;;;;;28.77;4.88;;;;;;;;;;4126819;28;20041;-74
2021/10/22 00:29:54;;;;;;;14.80;3.35;;;;;;;;;;4129340;28;20457;-73
2021/10/22 00:31:55;;;;;;;13.55;4.32;;;;;;;;;;4128042;28;20023;-73
2021/10/22 00:33:56;;;;;;;13.30;3.85;;;;;;;;;;4126047;28;20040;-73
2021/10/22 00:35:57;;;;;;;12.40;3.63;;;;;;;;;;4130261;28;20035;-73
2021/10/22 00:37:58;;;;;;;15.73;3.60;;;;;;;;;;4128839;28;20042;-73
2021/10/22 00:39:59;;;;;;;11.13;3.55;;;;;;;;;;4128777;28;20058;-73
2021/10/22 00:42:00;;;;;;;10.18;3.40;;;;;;;;;;4143502;28;20467;-73
2021/10/22 00:44:01;;;;;;;15.25;4.03;;;;;;;;;;4128789;28;20113;-73
2021/10/22 00:46:02;;;;;;;20.13;3.92;;;;;;;;;;4127652;28;20690;-73
2021/10/22 00:48:03;;;;;;;18.98;4.13;;;;;;;;;;4128782;28;20036;-73
2021/10/22 00:50:05;;;;;;;16.50;3.55;;;;;;;;;;4128276;28;20042;-73
2021/10/22 00:52:06;;;;;;;10.77;4.40;;;;;;;;;;4128378;28;20113;-73
2021/10/22 00:54:13;;;;;;;13.73;3.95;;;;;;;;;;4125330;28;20047;-74
2021/10/22 00:56:14;;;;;;;21.20;5.40;;;;;;;;;;4117946;28;20038;-73
2021/10/22 00:58:15;;;;;;;13.65;3.55;;;;;;;;;;4129370;28;20383;-73
2021/10/22 01:00:16;;;;;;;9.32;3.88;;;;;;;;;;4128240;28;20046;-73
2021/10/22 01:02:17;;;;;;;10.98;3.58;;;;;;;;;;4128157;28;20042;-73
2021/10/22 01:04:18;;;;;;;14.65;4.63;;;;;;;;;;4119626;28;20038;-73
2021/10/22 01:06:19;;;;;;;20.85;4.18;;;;;;;;;;4128038;28;20026;-73
2021/10/22 01:08:21;;;;;;;17.33;4.28;;;;;;;;;;4129354;28;20034;-73
2021/10/22 01:10:22;;;;;;;14.35;3.95;;;;;;;;;;4119015;28;20073;-73
2021/10/22 01:12:23;;;;;;;13.32;4.20;;;;;;;;;;4121661;28;20043;-73
2021/10/22 01:14:24;;;;;;;23.10;5.18;;;;;;;;;;4127041;28;20031;-73
2021/10/22 01:16:25;;;;;;;13.50;3.83;;;;;;;;;;4128835;28;20117;-73
2021/10/22 01:18:27;;;;;;;12.48;3.88;;;;;;;;;;4128416;28;20062;-72
2021/10/22 01:20:28;;;;;;;13.23;4.63;;;;;;;;;;4127349;28;20593;-73
2021/10/22 01:22:30;;;;;;;11.32;4.05;;;;;;;;;;4127147;28;20042;-73
2021/10/22 01:24:30;;;;;;;13.18;3.42;;;;;;;;;;4127882;28;20471;-73
2021/10/22 01:26:32;;;;;;;12.65;3.88;;;;;;;;;;4142697;28;20069;-73
2021/10/22 01:28:33;;;;;;;12.35;4.22;;;;;;;;;;4129918;28;20058;-73
2021/10/22 01:30:34;;;;;;;13.10;4.43;;;;;;;;;;4115610;28;20065;-73
2021/10/22 01:32:35;;;;;;;10.48;3.45;;;;;;;;;;4128554;28;20121;-73
2021/10/22 01:34:36;;;;;;;7.00;3.45;;;;;;;;;;4127581;28;20086;-74
2021/10/22 01:36:37;;;;;;;17.10;4.20;;;;;;;;;;4128788;28;20113;-74
2021/10/22 01:38:38;;;;;;;13.07;4.10;;;;;;;;;;4129467;28;20042;-73
2021/10/22 01:40:39;;;;;;;11.35;3.97;;;;;;;;;;4128922;28;20049;-73
2021/10/22 01:42:40;;;;;;;18.35;6.35;;;;;;;;;;4129731;28;20117;-73
2021/10/22 01:44:41;;;;;;;16.48;4.30;;;;;;;;;;4124286;28;20122;-73
2021/10/22 01:46:42;;;;;;;13.73;3.95;;;;;;;;;;4114068;28;20466;-74
2021/10/22 01:48:44;;;;;;;19.85;6.15;;;;;;;;;;4128920;28;20053;-73
2021/10/22 01:50:46;;;;;;;13.05;4.40;;;;;;;;;;4128264;28;20054;-73
2021/10/22 01:52:48;;;;;;;8.45;4.43;;;;;;;;;;4125569;28;20137;-74
2021/10/22 01:54:49;;;;;;;16.63;3.95;;;;;;;;;;4130265;28;20039;-74
2021/10/22 01:56:50;;;;;;;6.85;3.22;;;;;;;;;;4128155;28;20482;-74
2021/10/22 01:58:52;;;;;;;12.50;3.40;;;;;;;;;;4131124;28;20038;-73
2021/10/22 02:00:53;;;;;;;11.02;3.92;;;;;;;;;;4131390;28;20038;-73
2021/10/22 02:02:54;;;;;;;15.45;3.67;;;;;;;;;;4130451;28;20058;-73
2021/10/22 02:04:55;;;;;;;9.30;3.10;;;;;;;;;;4128414;28;20031;-73
2021/10/22 02:06:56;;;;;;;10.27;3.38;;;;;;;;;;4129167;28;20041;-73
2021/10/22 02:08:57;;;;;;;6.68;3.53;;;;;;;;;;4124406;28;20129;-73
2021/10/22 02:10:58;;;;;;;18.42;3.55;;;;;;;;;;4129553;28;20090;-73
2021/10/22 02:12:59;;;;;;;10.85;3.40;;;;;;;;;;4131458;28;20034;-73
2021/10/22 02:15:00;;;;;;;7.75;3.42;;;;;;;;;;4131240;28;20097;-72
2021/10/22 02:17:02;;;;;;;12.27;3.60;;;;;;;;;;4116072;28;20031;-72
2021/10/22 02:19:03;;;;;;;11.55;3.33;;;;;;;;;;4129377;28;20121;-74
2021/10/22 02:21:04;;;;;;;11.30;3.38;;;;;;;;;;4124670;28;20035;-72
2021/10/22 02:23:05;;;;;;;17.55;3.30;;;;;;;;;;4129877;28;20042;-72
2021/10/22 02:25:07;;;;;;;6.90;3.25;;;;;;;;;;4131851;28;20034;-73
2021/10/22 02:27:08;;;;;;;10.85;3.92;;;;;;;;;;4130765;28;20076;-73
2021/10/22 02:29:09;;;;;;;8.70;2.88;;;;;;;;;;4131781;28;20046;-74
2021/10/22 02:31:10;;;;;;;11.20;3.13;;;;;;;;;;4123530;28;20035;-73
2021/10/22 02:33:11;;;;;;;14.40;5.18;;;;;;;;;;4127593;28;20045;-74
2021/10/22 02:35:12;;;;;;;10.68;3.17;;;;;;;;;;4130703;28;20034;-73
2021/10/22 02:37:13;;;;;;;11.50;4.53;;;;;;;;;;4131354;28;20050;-73
2021/10/22 02:39:15;;;;;;;11.35;3.70;;;;;;;;;;4131341;28;20117;-73
2021/10/22 02:41:16;;;;;;;11.75;3.67;;;;;;;;;;4132128;28;20051;-73
2021/10/22 02:43:17;;;;;;;16.08;4.60;;;;;;;;;;4127888;28;20399;-73
2021/10/22 02:45:18;;;;;;;8.10;3.28;;;;;;;;;;4132147;28;20613;-73
2021/10/22 02:47:19;;;;;;;11.35;3.72;;;;;;;;;;4122004;28;20039;-73
2021/10/22 02:49:19;;;;;;;12.93;4.47;;;;;;;;;;4125282;28;20049;-74
2021/10/22 02:51:21;;;;;;;11.13;3.58;;;;;;;;;;4129931;28;20042;-74
2021/10/22 02:53:21;;;;;;;9.90;3.58;;;;;;;;;;4130594;28;20038;-74
2021/10/22 02:55:23;;;;;;;8.73;3.45;;;;;;;;;;4131386;28;20550;-72
2021/10/22 02:57:24;;;;;;;12.73;3.30;;;;;;;;;;4132150;28;20050;-72
2021/10/22 02:59:25;;;;;;;8.98;3.30;;;;;;;;;;4130250;28;20118;-72
2021/10/22 03:01:26;;;;;;;12.80;3.30;;;;;;;;;;4131008;28;20053;-73
2021/10/22 03:03:27;;;;;;;12.20;4.35;;;;;;;;;;4117050;28;20501;-73
2021/10/22 03:05:30;;;;;;;15.32;4.50;;;;;;;;;;4128795;28;20042;-73
2021/10/22 03:07:31;;;;;;;6.47;3.70;;;;;;;;;;4117610;28;20102;-73
2021/10/22 03:09:32;;;;;;;9.27;3.10;;;;;;;;;;4130168;28;20038;-73
2021/10/22 03:11:33;;;;;;;8.88;3.30;;;;;;;;;;4131240;28;20101;-73
2021/10/22 03:13:34;;;;;;;15.30;3.63;;;;;;;;;;4130431;28;20374;-73
2021/10/22 03:15:36;;;;;;;12.02;3.35;;;;;;;;;;4131159;28;20112;-73
2021/10/22 03:17:37;;;;;;;15.52;4.50;;;;;;;;;;4129978;28;20054;-73
2021/10/22 03:19:38;;;;;;;12.27;3.17;;;;;;;;;;4130811;28;20039;-74
2021/10/22 03:21:42;;;;;;;7.38;2.97;;;;;;;;;;4130321;28;20050;-73
2021/10/22 03:23:43;;;;;;;10.40;3.88;;;;;;;;;;4131872;28;20072;-73
2021/10/22 03:25:44;;;;;;;5.70;3.00;;;;;;;;;;4123964;28;20051;-73
2021/10/22 03:27:47;;;;;;;9.07;3.63;;;;;;;;;;4129286;28;20042;-73
2021/10/22 03:29:48;;;;;;;13.50;3.55;;;;;;;;;;4128119;28;20455;-74
2021/10/22 03:31:50;;;;;;;11.10;3.15;;;;;;;;;;4125358;28;20049;-74
2021/10/22 03:33:51;;;;;;;12.15;3.53;;;;;;;;;;4129484;28;20070;-72
2021/10/22 03:35:53;;;;;;;9.60;3.88;;;;;;;;;;4131381;28;20038;-72
2021/10/22 03:37:54;;;;;;;8.77;3.28;;;;;;;;;;4129137;28;20406;-73
2021/10/22 03:39:55;;;;;;;18.23;4.47;;;;;;;;;;4130920;28;20034;-72
2021/10/22 03:41:56;;;;;;;12.43;4.05;;;;;;;;;;4125835;28;20125;-72
2021/10/22 03:43:57;;;;;;;13.20;4.03;;;;;;;;;;4129892;28;20538;-73
2021/10/22 03:45:58;;;;;;;12.00;3.95;;;;;;;;;;4130909;28;20042;-73
2021/10/22 03:47:59;;;;;;;10.82;3.55;;;;;;;;;;4130384;28;20030;-73
2021/10/22 03:50:01;;;;;;;14.48;4.05;;;;;;;;;;4115045;28;20051;-73
2021/10/22 03:52:02;;;;;;;13.32;4.55;;;;;;;;;;4127746;28;20455;-74
2021/10/22 03:54:04;;;;;;;18.17;5.22;;;;;;;;;;4129429;28;20418;-73
2021/10/22 03:56:05;;;;;;;11.38;3.83;;;;;;;;;;4127210;28;20027;-73
2021/10/22 03:58:07;;;;;;;15.65;4.78;;;;;;;;;;4114689;28;20042;-73
2021/10/22 04:00:08;;;;;;;14.57;5.35;;;;;;;;;;4129016;28;20042;-74
2021/10/22 04:02:10;;;;;;;13.02;4.97;;;;;;;;;;4128960;28;20045;-74
2021/10/22 04:04:11;;;;;;;12.35;4.13;;;;;;;;;;4128808;28;20117;-74
2021/10/22 04:06:12;;;;;;;13.13;4.03;;;;;;;;;;4127627;28;20088;-74
2021/10/22 04:08:15;;;;;;;16.60;5.25;;;;;;;;;;4129840;28;20031;-74
2021/10/22 04:10:16;;;;;;;14.45;4.90;;;;;;;;;;4129239;28;20040;-73
2021/10/22 04:12:17;;;;;;;13.95;4.63;;;;;;;;;;4124143;28;20022;-73
2021/10/22 04:14:18;;;;;;;15.20;4.63;;;;;;;;;;4128265;28;20066;-73
2021/10/22 04:16:19;;;;;;;16.83;6.28;;;;;;;;;;4126151;28;20039;-73
2021/10/22 04:18:20;;;;;;;15.55;4.53;;;;;;;;;;4129591;28;20045;-74
2021/10/22 04:20:21;;;;;;;15.30;4.95;;;;;;;;;;4129692;28;20058;-74
2021/10/22 04:22:22;;;;;;;15.35;5.35;;;;;;;;;;4128820;28;20100;-74
2021/10/22 04:24:24;;;;;;;16.85;5.43;;;;;;;;;;4122276;28;20055;-73
2021/10/22 04:26:25;;;;;;;13.98;4.10;;;;;;;;;;4129150;28;20163;-73
2021/10/22 04:28:26;;;;;;;15.98;4.38;;;;;;;;;;4122901;28;20035;-73
2021/10/22 04:30:27;;;;;;;11.50;4.70;;;;;;;;;;4125372;28;20038;-73
2021/10/22 04:32:28;;;;;;;16.30;6.53;;;;;;;;;;4125036;28;20046;-73
2021/10/22 04:34:30;;;;;;;19.58;5.82;;;;;;;;;;4127616;28;20734;-73
2021/10/22 04:36:31;;;;;;;16.75;4.57;;;;;;;;;;4130104;28;20053;-73
2021/10/22 04:40:52;;;;;;;13.02;4.63;;;;;;;;;;4114594;28;20177;-73
2021/10/22 04:42:53;;;;;;;16.65;4.60;;;;;;;;;;4127625;28;20470;-72
2021/10/22 04:44:54;;;;;;;18.77;5.53;;;;;;;;;;4129844;28;20052;-73
2021/10/22 04:46:56;;;;;;;22.15;4.95;;;;;;;;;;4130508;28;20081;-73
2021/10/22 04:48:57;;;;;;;17.27;5.75;;;;;;;;;;4129852;28;20456;-73
2021/10/22 04:50:58;;;;;;;14.13;4.82;;;;;;;;;;4130051;28;20050;-73
2021/10/22 04:52:59;;;;;;;14.45;4.55;;;;;;;;;;4128227;28;20022;-73
2021/10/22 04:55:00;;;;;;;16.55;5.28;;;;;;;;;;4130714;28;20035;-75
2021/10/22 04:57:02;;;;;;;12.07;3.72;;;;;;;;;;4127293;28;20061;-74
2021/10/22 04:59:03;;;;;;;13.15;5.75;;;;;;;;;;4120926;28;20149;-74
2021/10/22 05:01:04;;;;;;;13.23;5.72;;;;;;;;;;4118296;28;20553;-74
2021/10/22 05:03:05;;;;;;;16.25;4.82;;;;;;;;;;4125552;28;20042;-74
2021/10/22 05:05:06;;;;;;;19.20;5.43;;;;;;;;;;4124556;28;20057;-75
2021/10/22 05:07:08;;;;;;;18.58;5.60;;;;;;;;;;4124077;28;20046;-74
2021/10/22 05:09:09;;;;;;;16.58;5.25;;;;;;;;;;4127122;28;20092;-74
2021/10/22 05:11:10;;;;;;;16.50;4.72;;;;;;;;;;4127132;28;20042;-73
2021/10/22 05:13:11;;;;;;;17.13;6.40;;;;;;;;;;4129340;28;20056;-73
2021/10/22 05:15:12;;;;;;;18.13;5.93;;;;;;;;;;4127786;28;20037;-72
2021/10/22 05:17:13;;;;;;;28.10;8.00;;;;;;;;;;4126428;28;20124;-72
2021/10/22 05:19:15;;;;;;;47.58;7.57;;;;;;;;;;4134800;28;20498;-73
2021/10/22 05:21:16;;;;;;;15.05;5.00;;;;;;;;;;4128516;28;20034;-73
2021/10/22 05:23:17;;;;;;;21.60;7.25;;;;;;;;;;4122210;28;20534;-73
2021/10/22 05:25:18;;;;;;;20.23;5.80;;;;;;;;;;4126986;28;20034;-74
2021/10/22 05:27:19;;;;;;;23.85;7.63;;;;;;;;;;4128660;28;20125;-73
2021/10/22 05:29:20;;;;;;;10.57;4.75;;;;;;;;;;4124210;28;20050;-72
2021/10/22 05:31:21;;;;;;;16.27;6.72;;;;;;;;;;4112967;28;20054;-74
2021/10/22 05:33:22;;;;;;;24.48;5.78;;;;;;;;;;4127930;28;20108;-74
2021/10/22 05:35:23;;;;;;;15.70;5.80;;;;;;;;;;4130774;28;20038;-74
2021/10/22 05:37:25;;;;;;;14.25;6.10;;;;;;;;;;4130880;28;20041;-73
2021/10/22 05:39:26;;;;;;;19.67;5.78;;;;;;;;;;4130544;28;20082;-73
2021/10/22 05:41:27;;;;;;;22.10;6.05;;;;;;;;;;4128243;28;20042;-73
2021/10/22 05:43:28;;;;;;;21.00;6.88;;;;;;;;;;4131921;28;20367;-72
2021/10/22 05:45:29;;;;;;;17.90;5.70;;;;;;;;;;4131325;28;20038;-73
2021/10/22 05:47:30;;;;;;;23.52;5.95;;;;;;;;;;4131960;28;20117;-73
2021/10/22 05:49:31;;;;;;;28.58;8.25;;;;;;;;;;4141100;28;20038;-72
2021/10/22 05:51:32;;;;;;;22.13;5.95;;;;;;;;;;4141019;28;20691;-73
2021/10/22 05:53:33;;;;;;;26.40;6.15;;;;;;;;;;4132022;28;20054;-73
2021/10/22 05:55:34;;;;;;;25.20;7.15;;;;;;;;;;4130049;28;20044;-74
2021/10/22 05:57:35;;;;;;;14.40;4.80;;;;;;;;;;4121169;28;20038;-73
2021/10/22 05:59:36;;;;;;;15.73;5.10;;;;;;;;;;4126624;28;20053;-74
2021/10/22 06:01:37;;;;;;;21.52;5.75;;;;;;;;;;4131499;28;20089;-73
2021/10/22 06:03:38;;;;;;;20.27;6.43;;;;;;;;;;4130443;28;20042;-73
2021/10/22 06:05:39;;;;;;;13.23;5.20;;;;;;;;;;4130802;28;20065;-73
2021/10/22 06:07:40;;;;;;;16.63;5.50;;;;;;;;;;4128710;28;20050;-75
2021/10/22 06:09:41;;;;;;;15.38;6.75;;;;;;;;;;4130334;28;20080;-74
2021/10/22 06:11:43;;;;;;;22.42;7.05;;;;;;;;;;4131316;28;20039;-73
2021/10/22 06:13:44;;;;;;;10.20;5.70;;;;;;;;;;4130518;28;20038;-72
2021/10/22 06:15:45;;;;;;;19.52;6.60;;;;;;;;;;4129916;28;20097;-73
2021/10/22 06:17:46;;;;;;;22.73;6.50;;;;;;;;;;4131203;28;20434;-73
2021/10/22 06:19:48;;;;;;;17.17;6.32;;;;;;;;;;4127328;28;20052;-73
2021/10/22 06:21:55;;;;;;;23.25;6.90;;;;;;;;;;4121496;28;20043;-73
2021/10/22 06:24:03;;;;;;;23.08;5.93;;;;;;;;;;4126915;28;20573;-74
2021/10/22 06:26:04;;;;;;;14.05;5.65;;;;;;;;;;4128443;28;20049;-73
2021/10/22 06:28:05;;;;;;;22.08;6.38;;;;;;;;;;4123073;28;20058;-74
2021/10/22 06:30:06;;;;;;;15.85;5.25;;;;;;;;;;4122788;28;20035;-74
2021/10/22 06:32:07;;;;;;;16.70;5.85;;;;;;;;;;4144941;28;20132;-76
2021/10/22 06:34:09;;;;;;;15.70;5.40;;;;;;;;;;4130669;28;20054;-75
2021/10/22 06:36:10;;;;;;;19.60;4.97;;;;;;;;;;4130746;28;20043;-73
2021/10/22 06:38:12;;;;;;;26.20;6.65;;;;;;;;;;4123898;28;20038;-73
2021/10/22 06:40:13;;;;;;;17.13;5.60;;;;;;;;;;4116826;28;20143;-74
2021/10/22 06:42:14;;;;;;;13.80;5.53;;;;;;;;;;4119536;28;20078;-73
2021/10/22 06:44:17;;;;;;;12.32;6.13;;;;;;;;;;4124024;28;20446;-73
2021/10/22 06:46:20;;;;;;;18.10;6.47;;;;;;;;;;4121715;28;20038;-74
2021/10/22 06:48:21;;;;;;;13.55;5.90;;;;;;;;;;4129650;28;20026;-74
2021/10/22 06:50:22;;;;;;;20.55;6.32;;;;;;;;;;4125579;28;20054;-74
2021/10/22 06:52:23;;;;;;;22.52;7.15;;;;;;;;;;4117579;28;20055;-74
2021/10/22 06:54:24;;;;;;;24.23;7.20;;;;;;;;;;4128137;28;20061;-74
2021/10/22 06:56:25;;;;;;;23.27;8.02;;;;;;;;;;4122597;28;20463;-75
2021/10/22 06:58:26;;;;;;;20.25;7.10;;;;;;;;;;4128194;28;20075;-74
2021/10/22 07:00:28;;;;;;;21.70;8.13;;;;;;;;;;4117457;28;20043;-74
2021/10/22 07:02:29;;;;;;;29.85;7.60;;;;;;;;;;4126458;28;20034;-75
2021/10/22 07:04:30;;;;;;;16.48;5.88;;;;;;;;;;4129783;28;20104;-74
2021/10/22 07:08:52;;;;;;;16.42;5.57;;;;;;;;;;4131381;28;20118;-75
2021/10/22 07:10:53;;;;;;;18.10;6.93;;;;;;;;;;4129446;28;20049;-74
2021/10/22 07:12:54;;;;;;;17.30;7.13;;;;;;;;;;4127749;28;20524;-74
2021/10/22 07:14:57;;;;;;;20.70;7.30;;;;;;;;;;4121931;28;20117;-75
2021/10/22 07:16:58;;;;;;;20.70;8.20;;;;;;;;;;4123451;28;20042;-75
2021/10/22 07:18:59;;;;;;;16.25;6.97;;;;;;;;;;4125687;28;20030;-76
2021/10/22 07:21:00;;;;;;;25.52;9.25;;;;;;;;;;4125604;28;20046;-76
2021/10/22 07:23:06;;;;;;;22.73;7.00;;;;;;;;;;4124883;28;20037;-76
2021/10/22 07:25:08;;;;;;;16.42;6.72;;;;;;;;;;4124836;28;20065;-75
2021/10/22 07:27:09;;;;;;;22.50;6.45;;;;;;;;;;4130922;28;20042;-76
2021/10/22 07:29:10;;;;;;;16.73;6.43;;;;;;;;;;4130707;28;20038;-75
2021/10/22 07:31:12;;;;;;;15.27;5.93;;;;;;;;;;4129143;28;20768;-76
2021/10/22 07:33:14;;;;;;;20.25;8.82;;;;;;;;;;4140506;28;20077;-76
2021/10/22 07:35:16;;;;;;;16.70;6.10;;;;;;;;;;4125118;28;20132;-76
2021/10/22 07:37:17;;;;;;;16.20;6.07;;;;;;;;;;4128853;28;20060;-76
2021/10/22 07:39:19;;;;;;;17.95;6.68;;;;;;;;;;4116036;28;20070;-76
2021/10/22 07:41:21;;;;;;;24.25;7.20;;;;;;;;;;4126559;28;20088;-75
2021/10/22 07:43:22;;;;;;;19.92;6.32;;;;;;;;;;4124676;28;20181;-76
2021/10/22 07:45:23;;;;;;;22.48;6.63;;;;;;;;;;4122978;28;20140;-76
2021/10/22 07:47:25;;;;;;;19.52;5.80;;;;;;;;;;4120134;28;20038;-76
2021/10/22 07:49:26;;;;;;;14.55;5.78;;;;;;;;;;4126481;28;20046;-76
2021/10/22 07:51:27;;;;;;;15.13;5.80;;;;;;;;;;4126816;28;20062;-76
2021/10/22 07:53:28;;;;;;;15.65;5.50;;;;;;;;;;4129712;28;20042;-75
2021/10/22 07:55:29;;;;;;;20.27;6.70;;;;;;;;;;4128977;28;20501;-76
2021/10/22 07:57:32;;;;;;;22.65;6.57;;;;;;;;;;4127933;28;20038;-75
2021/10/22 07:59:33;;;;;;;21.30;6.18;;;;;;;;;;4130189;28;20038;-76
2021/10/22 08:01:34;;;;;;;17.40;5.68;;;;;;;;;;4128356;28;20077;-75
2021/10/22 08:03:35;;;;;;;15.35;4.90;;;;;;;;;;4127747;28;20736;-76
2021/10/22 08:05:37;;;;;;;16.98;5.90;;;;;;;;;;4128526;28;20401;-77
2021/10/22 08:07:38;;;;;;;16.08;6.55;;;;;;;;;;4127089;28;20109;-76
2021/10/22 08:09:42;;;;;;;13.98;6.35;;;;;;;;;;4127978;28;20558;-77
2021/10/22 08:11:43;;;;;;;;;;;;;;;;;;4143161;28;20046;-77
2021/10/22 08:13:47;;;;;;;13.55;4.88;;;;;;;;;;4128031;28;20302;-76
2021/10/22 08:15:48;;;;;;;16.25;5.30;;;;;;;;;;4128892;28;20490;-76
2021/10/22 08:17:49;;;;;;;13.77;5.72;;;;;;;;;;4129452;28;20039;-75
2021/10/22 08:19:58;;;;;;;20.60;5.78;;;;;;;;;;4127281;28;20547;-76
2021/10/22 08:24:06;;;;;;;15.68;5.10;;;;;;;;;;4127522;28;20065;-76
2021/10/22 08:26:07;;;;;;;16.20;4.85;;;;;;;;;;4130164;28;20046;-75
2021/10/22 08:28:08;;;;;;;14.85;5.28;;;;;;;;;;4125467;28;20118;-75
2021/10/22 08:30:11;;;;;;;14.88;4.45;;;;;;;;;;4116897;28;20065;-76
2021/10/22 08:32:12;;;;;;;10.40;3.67;;;;;;;;;;4127714;28;20034;-75
2021/10/22 08:34:14;;;;;;;10.55;5.00;;;;;;;;;;4128403;28;20270;-75
2021/10/22 08:36:15;;;;;;;12.32;5.43;;;;;;;;;;4128362;28;20129;-75
2021/10/22 08:38:16;;;;;;;11.40;4.28;;;;;;;;;;4127484;28;23125;-76
2021/10/22 08:40:17;;;;;;;14.90;5.60;;;;;;;;;;4119953;28;20038;-75
2021/10/22 08:42:24;;;;;;;19.00;6.45;;;;;;;;;;4116273;28;20097;-75
2021/10/22 08:44:27;;;;;;;13.65;4.53;;;;;;;;;;4115688;28;20141;-75
2021/10/22 08:46:29;;;;;;;8.85;4.10;;;;;;;;;;4117875;28;20456;-76
2021/10/22 08:48:30;;;;;;;17.70;5.95;;;;;;;;;;4118372;28;20038;-76
2021/10/22 08:50:31;;;;;;;14.88;5.28;;;;;;;;;;4115785;28;20046;-76
2021/10/22 08:52:33;;;;;;;13.60;4.65;;;;;;;;;;4119463;28;20037;-75
2021/10/22 08:54:35;;;;;;;17.00;4.57;;;;;;;;;;4120172;28;20048;-75
2021/10/22 08:56:39;;;;;;;15.02;4.82;;;;;;;;;;4117114;28;21892;-75
2021/10/22 08:58:41;;;;;;;18.05;4.70;;;;;;;;;;4119814;28;20042;-74
2021/10/22 09:00:42;;;;;;;13.55;4.90;;;;;;;;;;4121251;28;20201;-74
2021/10/22 09:02:46;;;;;;;14.55;4.18;;;;;;;;;;4118196;28;20050;-75
2021/10/22 09:04:48;;;;;;;11.77;4.68;;;;;;;;;;4119871;28;20125;-74
2021/10/22 09:06:51;;;;;;;13.15;4.15;;;;;;;;;;4119014;28;20063;-75
2021/10/22 09:08:57;;;;;;;15.63;4.05;;;;;;;;;;4127168;28;20046;-75
2021/10/22 09:10:59;;;;;;;18.60;5.03;;;;;;;;;;4120197;28;20038;-75
2021/10/22 09:13:01;;;;;;;14.35;4.00;;;;;;;;;;4123645;28;20069;-74
2021/10/22 09:15:05;;;;;;;9.98;4.50;;;;;;;;;;4124450;28;20064;-75
2021/10/22 09:17:13;;;;;;;11.98;4.32;;;;;;;;;;4120716;28;20573;-75
2021/10/22 09:19:26;;;;;;;13.18;4.30;;;;;;;;;;4120558;28;20118;-77
2021/10/22 09:21:28;;;;;;;10.10;4.55;;;;;;;;;;4119960;28;20126;-76
2021/10/22 09:23:30;;;;;;;10.55;3.45;;;;;;;;;;4121469;28;20121;-76
2021/10/22 09:25:32;;;;;;;22.70;4.22;;;;;;;;;;4122314;28;20043;-76
2021/10/22 09:27:34;;;;;;;17.75;5.63;;;;;;;;;;4121197;28;20118;-76
2021/10/22 09:29:43;;;;;;;16.40;3.60;;;;;;;;;;4122748;28;20034;-75
2021/10/22 09:31:46;;;;;;;18.48;4.28;;;;;;;;;;4124194;28;20038;-76
2021/10/22 09:33:54;;;;;;;10.32;3.75;;;;;;;;;;4120297;28;20034;-75
2021/10/22 09:35:56;;;;;;;7.50;3.08;;;;;;;;;;4122950;28;20108;-76
2021/10/22 09:38:05;;;;;;;17.30;5.30;;;;;;;;;;4118599;28;20040;-75
2021/10/22 09:40:07;;;;;;;14.77;5.05;;;;;;;;;;4125851;28;20038;-76
2021/10/22 09:42:19;;;;;;;19.92;4.78;;;;;;;;;;4121048;28;20030;-76
2021/10/22 09:44:22;;;;;;;18.00;4.63;;;;;;;;;;4121582;28;20042;-75
2021/10/22 09:46:24;;;;;;;27.00;4.20;;;;;;;;;;4119917;28;20145;-77
2021/10/22 09:48:30;;;;;;;13.23;3.92;;;;;;;;;;4123638;28;20034;-76
2021/10/22 09:50:31;;;;;;;10.02;3.90;;;;;;;;;;4119615;28;20042;-75
2021/10/22 09:52:32;;;;;;;16.95;4.50;;;;;;;;;;4124353;28;20044;-75
2021/10/22 09:54:35;;;;;;;20.70;4.95;;;;;;;;;;4121838;28;20100;-76
2021/10/22 09:56:37;;;;;;;16.03;4.40;;;;;;;;;;4120819;28;20431;-74
2021/10/22 09:58:38;;;;;;;20.13;5.63;;;;;;;;;;4122093;28;20630;-74
2021/10/22 10:00:39;;;;;;;10.68;3.72;;;;;;;;;;4124777;28;20470;-75
2021/10/22 10:02:40;;;;;;;17.40;4.13;;;;;;;;;;4121752;28;20132;-73
2021/10/22 10:04:41;;;;;;;12.18;5.07;;;;;;;;;;4122835;28;20125;-74
2021/10/22 10:06:44;;;;;;;11.75;2.90;;;;;;;;;;4125723;28;20096;-76
2021/10/22 10:08:45;;;;;;;12.00;3.55;;;;;;;;;;4118226;28;20482;-75
2021/10/22 10:10:46;;;;;;;19.65;3.72;;;;;;;;;;4119772;28;20454;-75
2021/10/22 10:12:47;;;;;;;11.02;3.97;;;;;;;;;;4119871;28;20072;-75
2021/10/22 10:14:48;;;;;;;10.45;3.45;;;;;;;;;;4121569;28;20030;-75
2021/10/22 10:16:49;;;;;;;8.65;3.03;;;;;;;;;;4118524;28;20139;-75
2021/10/22 10:18:55;;;;;;;13.45;3.63;;;;;;;;;;4119251;28;20506;-75
2021/10/22 10:20:58;;;;;;;12.45;4.85;;;;;;;;;;4118313;28;20112;-74
2021/10/22 10:23:02;;;;;;;11.75;3.83;;;;;;;;;;4122637;28;20042;-74
2021/10/22 10:25:06;;;;;;;25.70;4.93;;;;;;;;;;4120565;28;20492;-75
2021/10/22 10:27:07;;;;;;;14.45;3.97;;;;;;;;;;4124674;28;20037;-74
2021/10/22 10:29:09;;;;;;;14.27;3.85;;;;;;;;;;4119922;28;20389;-74
2021/10/22 10:31:27;;;;;;;6.80;3.53;;;;;;;;;;4121672;28;20042;-72
2021/10/22 10:33:36;;;;;;;12.65;4.43;;;;;;;;;;4118489;28;20038;-75
2021/10/22 10:35:38;;;;;;;15.52;3.70;;;;;;;;;;4120419;28;20046;-74
2021/10/22 10:37:43;;;;;;;14.98;4.88;;;;;;;;;;4123652;28;20037;-74
2021/10/22 10:39:44;;;;;;;13.40;4.38;;;;;;;;;;4119031;28;20050;-75
2021/10/22 10:41:45;;;;;;;13.85;3.80;;;;;;;;;;4120033;28;21554;-75
2021/10/22 10:43:46;;;;;;;10.50;3.40;;;;;;;;;;4117079;28;20030;-75
2021/10/22 10:45:48;;;;;;;12.73;4.43;;;;;;;;;;4120792;28;20039;-75
2021/10/22 10:47:49;;;;;;;14.73;3.38;;;;;;;;;;4118165;28;20042;-75
2021/10/22 10:49:50;;;;;;;11.43;4.00;;;;;;;;;;4121667;28;20057;-75
2021/10/22 10:51:51;;;;;;;12.98;3.92;;;;;;;;;;4122703;28;20050;-75
2021/10/22 10:54:01;;;;;;;13.57;4.80;;;;;;;;;;4123706;28;20472;-75
2021/10/22 10:56:04;;;;;;;13.85;5.05;;;;;;;;;;4121864;28;20041;-74
2021/10/22 10:58:07;;;;;;;13.18;3.58;;;;;;;;;;4121035;28;20092;-75
2021/10/22 11:00:09;;;;;;;;;;;;;;;;;;4123684;28;20037;-76
2021/10/22 11:02:10;;;;;;;19.27;4.40;;;;;;;;;;4123123;28;19925;-74
2021/10/22 11:04:10;;;;;;;11.13;3.70;;;;;;;;;;4123395;28;20037;-74
2021/10/22 11:06:33;;;;;;;17.75;3.60;;;;;;;;;;4122619;28;20125;-75
2021/10/22 11:08:34;;;;;;;11.80;3.35;;;;;;;;;;4126082;28;20042;-75
2021/10/22 11:10:58;;;;;;;8.25;3.20;;;;;;;;;;4134225;28;20393;-75
2021/10/22 11:13:15;;;;;;;11.63;3.33;;;;;;;;;;4124283;28;20482;-76
2021/10/22 11:15:34;;;;;;;12.30;3.33;;;;;;;;;;4137314;28;20042;-76
2021/10/22 11:17:36;;;;;;;12.27;4.32;;;;;;;;;;4120567;28;20085;-76
2021/10/22 11:19:41;;;;;;;13.35;3.58;;;;;;;;;;4124016;28;20596;-76
2021/10/22 11:21:47;;;;;;;9.57;3.53;;;;;;;;;;4123473;28;20036;-76
2021/10/22 11:23:49;;;;;;;13.38;3.28;;;;;;;;;;4124680;28;20038;-75
2021/10/22 11:25:56;;;;;;;12.00;3.28;;;;;;;;;;4123820;28;20114;-76
2021/10/22 11:28:02;;;;;;;15.88;4.40;;;;;;;;;;4125393;28;20053;-77
2021/10/22 11:30:03;;;;;;;11.52;3.78;;;;;;;;;;4123610;28;21652;-76
2021/10/22 11:32:15;;;;;;;11.27;3.75;;;;;;;;;;4123698;28;20104;-76
2021/10/22 11:34:18;;;;;;;11.73;3.47;;;;;;;;;;4121383;28;20038;-74
2021/10/22 11:36:20;;;;;;;10.30;3.42;;;;;;;;;;4125603;28;20046;-75
2021/10/22 11:38:25;;;;;;;10.57;3.05;;;;;;;;;;4120801;28;20048;-78
2021/10/22 11:40:26;;;;;;;8.13;3.63;;;;;;;;;;4123589;28;20378;-75
2021/10/22 11:42:28;;;;;;;18.30;4.15;;;;;;;;;;4119875;28;20846;-75
2021/10/22 11:44:29;;;;;;;12.13;4.27;;;;;;;;;;4120957;28;20133;-76
2021/10/22 11:46:59;;;;;;;10.15;3.05;;;;;;;;;;4122530;28;20078;-76
2021/10/22 11:49:00;;;;;;;14.98;3.90;;;;;;;;;;4117410;28;20439;-75
2021/10/22 11:51:01;;;;;;;12.05;3.70;;;;;;;;;;4120805;28;20044;-76
2021/10/22 11:53:13;;;;;;;12.70;4.18;;;;;;;;;;4121844;28;20172;-76
2021/10/22 11:55:25;;;;;;;9.88;3.70;;;;;;;;;;4122217;28;20069;-76
2021/10/22 11:57:26;;;;;;;14.70;4.35;;;;;;;;;;4122099;28;20037;-75
2021/10/22 11:59:27;;;;;;;10.35;2.80;;;;;;;;;;4126492;28;20061;-75
2021/10/22 12:01:29;;;;;;;14.38;3.65;;;;;;;;;;4122790;28;20501;-76
2021/10/22 12:03:30;;;;;;;13.20;3.67;;;;;;;;;;4125081;28;20439;-76
2021/10/22 12:05:33;;;;;;;7.82;3.10;;;;;;;;;;4120762;28;20034;-76
2021/10/22 12:07:38;;;;;;;7.70;2.90;;;;;;;;;;4122595;28;20574;-76
2021/10/22 12:09:41;;;;;;;8.02;2.55;;;;;;;;;;4124430;28;20301;-74